CheckWX is a tool to help pilots better visualize weather data.  It is not intended as a substitute for an official pre-flight weather briefing.

12:05:10 UTC

LFOB METAR
Paris Beauvais Tillé Airport
Beauvais/Tillé, France
Current

35 mins ago

LFOB 261130Z AUTO 03012KT CAVOK 27/19 Q1023 TEMPO 03015G25KT
Observed
Jun-26 @ 11:30 UTC
Wind
  • 030° at 12 KTS
Visibility
10,000+ meters
Flight Rules
VFR
Cloud Levels
  • Clear skies
Temperature
27°C / 81°F
Dewpoint
19°C / 66°F
Heat Index
28°C / 83°F
Humidity
62%
Altimeter
30.21" Hg
Pressure
1022.92 hPa
Previous

1 hour ago

LFOB 261100Z AUTO 04010KT 360V130 CAVOK 26/19 Q1024 NOSIG
Observed
Jun-26 @ 11:00 UTC
Wind
  • 040° at 10 KTS
Visibility
10,000+ meters
Flight Rules
VFR
Cloud Levels
  • Clear skies
Temperature
26°C / 79°F
Dewpoint
19°C / 66°F
Humidity
65%
Altimeter
30.24" Hg
Pressure
1023.92 hPa
Previous

2 hours ago

LFOB 261030Z AUTO 03011KT 010V080 9000 NSC 26/18 Q1024 NOSIG
Observed
Jun-26 @ 10:30 UTC
Wind
  • 030° at 11 KTS
Visibility
9,000 meters
Flight Rules
VFR
Cloud Levels
  • Clear skies
Temperature
26°C / 79°F
Dewpoint
18°C / 64°F
Humidity
61%
Altimeter
30.24" Hg
Pressure
1023.92 hPa